createdAt,value
2023-03-12T00:01:22.230Z,-0.63
2023-03-12T00:06:30.243Z,-0.60
2023-03-12T00:11:36.786Z,-0.60
2023-03-12T00:16:43.591Z,-0.69
2023-03-12T00:21:51.885Z,-0.66
2023-03-12T00:26:58.615Z,-0.68
2023-03-12T00:32:05.310Z,-0.67
2023-03-12T00:37:13.439Z,-0.63
2023-03-12T00:42:21.102Z,-0.60
2023-03-12T00:47:27.615Z,-0.59
2023-03-12T00:52:35.776Z,-0.56
2023-03-12T00:57:42.373Z,-0.58
2023-03-12T01:02:49.045Z,-0.56
2023-03-12T01:07:57.146Z,-0.54
2023-03-12T01:13:03.814Z,-0.52
2023-03-12T01:18:10.350Z,-0.51
2023-03-12T01:23:18.538Z,-0.47
2023-03-12T01:28:26.083Z,-0.45
2023-03-12T01:33:32.557Z,-0.44
2023-03-12T01:38:40.515Z,-0.40
2023-03-12T01:43:47.448Z,-0.39
2023-03-12T01:49:01.384Z,-0.37
2023-03-12T01:54:17.480Z,-0.39
2023-03-12T01:59:32.281Z,-0.42
2023-03-12T02:04:41.673Z,-0.46
2023-03-12T02:09:52.646Z,-0.46
2023-03-12T02:14:59.487Z,-0.48
2023-03-12T02:20:18.700Z,-0.36
2023-03-12T02:25:37.055Z,-0.45
2023-03-12T02:30:48.076Z,-0.46
2023-03-12T02:35:56.406Z,-0.50
2023-03-12T02:41:15.404Z,-0.53
2023-03-12T02:46:23.131Z,-0.53
2023-03-12T02:51:29.980Z,-0.52
2023-03-12T02:56:38.650Z,-0.51
2023-03-12T03:01:45.850Z,-0.50
2023-03-12T03:06:52.794Z,-0.46
2023-03-12T03:12:01.179Z,-0.47
2023-03-12T03:17:10.295Z,-0.40
2023-03-12T03:22:16.975Z,-0.40
2023-03-12T03:27:24.983Z,-0.36
2023-03-12T03:32:32.954Z,-0.35
2023-03-12T03:37:39.768Z,-0.32
2023-03-12T03:42:47.946Z,-0.30
2023-03-12T03:47:54.959Z,-0.30
2023-03-12T03:53:01.760Z,-0.25
2023-03-12T03:58:10.205Z,-0.22
2023-03-12T04:03:18.692Z,-0.19
2023-03-12T04:08:25.358Z,-0.15
2023-03-12T04:13:33.230Z,-0.14
2023-03-12T04:18:40.669Z,-0.13
2023-03-12T04:23:47.801Z,-0.09
2023-03-12T04:28:56.882Z,-0.05
2023-03-12T04:34:04.251Z,-0.05
2023-03-12T04:39:11.271Z,-0.02
2023-03-12T04:44:19.426Z,-0.01
2023-03-12T04:49:26.134Z,0.01
2023-03-12T04:54:34.565Z,0.03
2023-03-12T04:59:43.094Z,0.06
2023-03-12T05:04:49.777Z,0.07
2023-03-12T05:09:56.839Z,0.05
2023-03-12T05:15:05.480Z,0.06
2023-03-12T05:20:14.168Z,0.07
2023-03-12T05:25:21.517Z,0.07
2023-03-12T05:30:29.304Z,0.09
2023-03-12T05:35:35.878Z,0.11
2023-03-12T05:40:42.284Z,0.13
2023-03-12T05:45:51.397Z,0.16
2023-03-12T05:50:58.827Z,0.16
2023-03-12T05:56:07.374Z,0.16
2023-03-12T06:01:18.331Z,0.21
2023-03-12T06:06:25.349Z,0.24
2023-03-12T06:11:33.726Z,0.23
2023-03-12T06:16:41.889Z,0.24
2023-03-12T06:21:49.049Z,0.29
2023-03-12T06:26:56.138Z,0.30
2023-03-12T06:32:04.260Z,0.29
2023-03-12T06:37:12.113Z,0.31
2023-03-12T06:42:20.064Z,0.34
2023-03-12T06:47:28.089Z,0.39
2023-03-12T06:52:34.741Z,0.41
2023-03-12T06:57:41.314Z,0.45
2023-03-12T07:02:49.400Z,0.48
2023-03-12T07:07:58.525Z,0.47
2023-03-12T07:13:05.012Z,0.53
2023-03-12T07:18:14.726Z,0.60
2023-03-12T07:23:21.582Z,0.60
2023-03-12T07:28:28.260Z,0.60
2023-03-12T07:33:37.001Z,0.66
2023-03-12T07:38:43.735Z,0.72
2023-03-12T07:43:50.215Z,0.75
2023-03-12T07:48:58.069Z,0.73
2023-03-12T07:54:04.666Z,0.70
2023-03-12T07:59:11.448Z,0.66
2023-03-12T08:04:19.897Z,0.67
2023-03-12T08:09:29.801Z,0.69
2023-03-12T08:14:37.221Z,0.73
2023-03-12T08:19:48.550Z,0.76
2023-03-12T08:24:55.490Z,0.80
2023-03-12T08:30:02.503Z,0.88
2023-03-12T08:35:11.890Z,0.93
2023-03-12T08:40:19.155Z,0.99
2023-03-12T08:45:25.731Z,0.97
2023-03-12T08:50:33.731Z,0.95
2023-03-12T08:55:40.194Z,0.97
2023-03-12T09:00:46.532Z,1.06
2023-03-12T09:06:06.630Z,1.17
2023-03-12T09:11:14.958Z,1.24
2023-03-12T09:16:21.604Z,1.26
2023-03-12T09:21:31.648Z,1.34
2023-03-12T09:26:38.397Z,1.44
2023-03-12T09:31:44.977Z,1.40
2023-03-12T09:36:52.887Z,1.42
2023-03-12T09:41:59.576Z,1.44
2023-03-12T09:47:12.957Z,1.44
2023-03-12T09:52:30.063Z,1.49
2023-03-12T09:57:37.074Z,1.50
2023-03-12T10:03:20.072Z,1.52
2023-03-12T10:08:41.992Z,1.56
2023-03-12T10:14:23.365Z,1.59
2023-03-12T10:19:57.325Z,1.64
2023-03-12T10:25:18.233Z,1.68
2023-03-12T10:30:28.616Z,1.78
2023-03-12T10:35:35.658Z,1.76
2023-03-12T10:40:44.310Z,1.80
2023-03-12T10:46:04.806Z,1.73
2023-03-12T10:51:15.419Z,1.77
2023-03-12T10:56:23.386Z,1.98
2023-03-12T11:01:32.815Z,2.01
2023-03-12T11:06:39.720Z,2.11
2023-03-12T11:11:50.352Z,2.23
2023-03-12T11:16:58.567Z,2.47
2023-03-12T11:22:11.883Z,2.58
2023-03-12T11:27:32.635Z,2.66
2023-03-12T11:32:43.452Z,2.93
2023-03-12T11:38:05.198Z,2.92
2023-03-12T11:43:50.516Z,3.04
2023-03-12T11:49:13.306Z,2.95
2023-03-12T11:55:00.730Z,2.83
2023-03-12T12:00:18.817Z,2.88
2023-03-12T12:05:40.105Z,2.80
2023-03-12T12:11:00.355Z,2.94
2023-03-12T12:16:42.296Z,3.16
2023-03-12T12:22:05.324Z,3.15
2023-03-12T12:27:22.466Z,3.08
2023-03-12T12:32:48.367Z,3.05
2023-03-12T12:38:01.713Z,3.12
2023-03-12T12:43:25.687Z,3.10
2023-03-12T12:48:38.528Z,3.11
2023-03-12T12:53:55.518Z,3.12
2023-03-12T12:59:26.786Z,3.18
2023-03-12T13:04:39.210Z,3.23
2023-03-12T13:09:48.340Z,3.27
2023-03-12T13:14:57.914Z,3.33
2023-03-12T13:20:21.556Z,3.36
2023-03-12T13:25:52.882Z,3.38
2023-03-12T13:31:01.970Z,3.34
2023-03-12T13:36:23.989Z,3.43
2023-03-12T13:41:38.517Z,3.34
2023-03-12T13:46:49.341Z,3.22
2023-03-12T13:52:25.864Z,3.22
2023-03-12T13:57:41.224Z,3.30
2023-03-12T14:03:00.588Z,3.34
2023-03-12T14:08:30.664Z,3.17
2023-03-12T14:14:06.268Z,3.17
2023-03-12T14:19:16.473Z,3.18
2023-03-12T14:24:33.274Z,3.23
2023-03-12T14:29:45.487Z,3.23
2023-03-12T14:34:59.838Z,3.17
2023-03-12T14:40:22.551Z,3.17
2023-03-12T14:45:30.479Z,3.08
2023-03-12T14:50:41.779Z,3.04
2023-03-12T14:56:06.233Z,3.01
2023-03-12T15:01:19.455Z,2.97
2023-03-12T15:06:33.427Z,2.90
2023-03-12T15:11:43.367Z,2.91
2023-03-12T15:16:55.052Z,2.93
2023-03-12T15:22:03.754Z,2.95
2023-03-12T15:27:35.337Z,2.93
2023-03-12T15:32:43.422Z,2.94
2023-03-12T15:37:55.872Z,2.92
2023-03-12T15:43:08.051Z,2.91
2023-03-12T15:48:28.285Z,2.92
2023-03-12T15:53:40.835Z,2.86
2023-03-12T15:59:00.425Z,2.87
2023-03-12T16:04:11.556Z,2.82
2023-03-12T16:09:27.175Z,2.78
2023-03-12T16:14:37.606Z,2.79
2023-03-12T16:19:47.118Z,2.73
2023-03-12T16:24:57.951Z,2.72
2023-03-12T16:30:15.333Z,2.67
2023-03-12T16:35:24.253Z,2.62
2023-03-12T16:40:37.756Z,2.56
2023-03-12T16:45:52.541Z,2.51
2023-03-12T16:51:07.671Z,2.43
2023-03-12T16:56:20.613Z,2.38
2023-03-12T17:01:30.653Z,2.33
2023-03-12T17:06:41.130Z,2.27
2023-03-12T17:11:51.872Z,2.21
2023-03-12T17:17:02.978Z,2.09
2023-03-12T17:22:12.285Z,2.02
2023-03-12T17:27:22.224Z,1.94
2023-03-12T17:32:34.437Z,1.82
2023-03-12T17:37:44.222Z,1.73
2023-03-12T17:42:54.469Z,1.65
2023-03-12T17:48:04.942Z,1.49
2023-03-12T17:53:16.881Z,1.50
2023-03-12T17:58:27.253Z,1.43
2023-03-12T18:03:39.679Z,1.42
2023-03-12T18:08:48.738Z,1.41
2023-03-12T18:13:56.921Z,1.29
2023-03-12T18:19:06.727Z,1.26
2023-03-12T18:24:14.905Z,1.18
2023-03-12T18:29:24.465Z,0.99
2023-03-12T18:34:36.458Z,0.90
2023-03-12T18:39:47.161Z,0.84
2023-03-12T18:45:00.186Z,0.71
2023-03-12T18:50:15.678Z,0.66
2023-03-12T18:55:26.669Z,0.63
2023-03-12T19:00:36.683Z,0.60
2023-03-12T19:05:49.454Z,0.56
2023-03-12T19:11:00.573Z,0.57
2023-03-12T19:16:18.780Z,0.60
2023-03-12T19:21:39.584Z,0.59
2023-03-12T19:26:49.946Z,0.64
2023-03-12T19:32:00.985Z,0.62
2023-03-12T19:37:15.759Z,0.66
2023-03-12T19:42:26.930Z,0.71
2023-03-12T19:47:37.439Z,0.64
2023-03-12T19:52:50.141Z,0.67
2023-03-12T19:58:03.852Z,0.64
2023-03-12T20:03:15.200Z,0.60
2023-03-12T20:08:30.328Z,0.53
2023-03-12T20:13:41.732Z,0.51
2023-03-12T20:18:52.883Z,0.42
2023-03-12T20:24:07.155Z,0.40
2023-03-12T20:29:17.811Z,0.40
2023-03-12T20:34:28.491Z,0.28
2023-03-12T20:39:49.620Z,0.14
2023-03-12T20:45:00.404Z,0.14
2023-03-12T20:50:09.940Z,0.12
2023-03-12T20:55:21.665Z,0.05
2023-03-12T21:00:31.285Z,-0.25
2023-03-12T21:05:41.352Z,-0.21
2023-03-12T21:10:53.095Z,-0.34
2023-03-12T21:16:05.056Z,-0.42
2023-03-12T21:21:15.024Z,-0.46
2023-03-12T21:26:23.939Z,-0.59
2023-03-12T21:31:32.797Z,-0.76
2023-03-12T21:36:41.197Z,-0.70
2023-03-12T21:41:50.433Z,-0.64
2023-03-12T21:46:56.552Z,-0.51
2023-03-12T21:52:03.446Z,-0.51
2023-03-12T21:57:11.641Z,-0.49
2023-03-12T22:02:18.325Z,-0.73
2023-03-12T22:07:24.956Z,-0.67
2023-03-12T22:12:33.079Z,-0.59
2023-03-12T22:17:39.668Z,-0.52
2023-03-12T22:22:46.363Z,-0.45
2023-03-12T22:27:54.689Z,-0.54
2023-03-12T22:33:01.062Z,-0.62
2023-03-12T22:38:07.563Z,-0.54
2023-03-12T22:43:15.868Z,-0.44
2023-03-12T22:48:22.516Z,-0.42
2023-03-12T22:53:29.156Z,-0.39
2023-03-12T22:58:38.047Z,-0.39
2023-03-12T23:03:46.302Z,-0.33
2023-03-12T23:08:52.963Z,-0.30
2023-03-12T23:14:00.755Z,-0.23
2023-03-12T23:19:07.271Z,-0.16
2023-03-12T23:24:13.556Z,-0.16
2023-03-12T23:29:21.546Z,-0.08
2023-03-12T23:34:28.585Z,-0.02
2023-03-12T23:39:44.980Z,-0.02
2023-03-12T23:44:59.887Z,0.03
2023-03-12T23:50:07.777Z,0.05
2023-03-12T23:55:14.573Z,0.08
